Time;durP1;ratioP1;P1;durP2;ratioP2;P2;SDS_P1;SDS_P2;PMS_P1;PMS_P2;Temp;Humidity;BMP_temperature;BMP_pressure;BME280_temperature;BME280_humidity;BME280_pressure;Samples;Min_cycle;Max_cycle;Signal;HPM_P1;HPM_P2
2023/08/09 00:00:08;;;;;;;0.60;0.40;;;18.00;1.00;;;;;;5059777;28;20519;-54
2023/08/09 00:02:35;;;;;;;0.60;0.40;;;18.00;1.00;;;;;;5058416;28;20456;-57
2023/08/09 00:05:02;;;;;;;0.70;0.30;;;17.90;1.00;;;;;;5079774;28;20919;-57
2023/08/09 00:07:29;;;;;;;0.70;0.40;;;18.00;1.00;;;;;;5077110;28;20423;-57
2023/08/09 00:09:56;;;;;;;0.70;0.40;;;17.90;1.00;;;;;;5078971;28;20530;-57
2023/08/09 00:12:23;;;;;;;0.80;0.40;;;17.90;1.00;;;;;;5074997;28;20423;-57
2023/08/09 00:14:50;;;;;;;0.60;0.40;;;17.90;1.00;;;;;;5074449;28;20518;-57
2023/08/09 00:17:18;;;;;;;0.90;0.40;;;17.90;99.90;;;;;;5077357;28;20526;-57
2023/08/09 00:19:46;;;;;;;0.82;0.50;;;17.80;99.90;;;;;;5075036;28;20516;-57
2023/08/09 00:22:13;;;;;;;1.50;0.43;;;17.80;1.00;;;;;;5079532;28;20869;-57
2023/08/09 00:24:39;;;;;;;0.80;0.40;;;17.80;99.90;;;;;;5074876;28;20534;-57
2023/08/09 00:27:06;;;;;;;0.70;0.40;;;17.80;1.00;;;;;;5079238;28;20459;-57
2023/08/09 00:29:33;;;;;;;0.70;0.40;;;17.70;20.30;;;;;;5095913;28;20465;-57
2023/08/09 00:32:00;;;;;;;0.80;0.40;;;17.70;1.00;;;;;;5090955;28;20547;-55
2023/08/09 00:34:28;;;;;;;0.50;0.30;;;17.70;1.00;;;;;;5076089;28;20506;-55
2023/08/09 00:36:55;;;;;;;0.90;0.43;;;17.70;1.00;;;;;;5066431;28;20433;-56
2023/08/09 00:39:22;;;;;;;0.70;0.50;;;17.70;1.00;;;;;;5056374;28;20724;-55
2023/08/09 00:41:49;;;;;;;0.80;0.50;;;17.70;99.90;;;;;;5072837;28;20521;-56
2023/08/09 00:44:15;;;;;;;1.00;0.40;;;17.70;99.90;;;;;;5095973;28;20504;-54
2023/08/09 00:46:43;;;;;;;1.10;0.50;;;17.60;33.40;;;;;;5087257;28;20522;-56
2023/08/09 00:49:11;;;;;;;0.63;0.40;;;17.60;57.80;;;;;;5075694;28;20419;-56
2023/08/09 00:51:39;;;;;;;0.80;0.40;;;17.50;99.90;;;;;;5067457;28;20453;-51
2023/08/09 00:54:06;;;;;;;0.70;0.40;;;17.50;99.90;;;;;;5055042;28;20519;-56
2023/08/09 00:56:33;;;;;;;1.10;0.40;;;17.50;99.90;;;;;;5076902;28;20739;-56
2023/08/09 00:59:01;;;;;;;1.00;0.40;;;17.50;1.00;;;;;;5075773;28;20523;-56
2023/08/09 01:01:28;;;;;;;0.60;0.57;;;17.50;99.90;;;;;;5077855;28;20436;-57
2023/08/09 01:03:55;;;;;;;0.90;0.40;;;17.40;1.00;;;;;;5075791;28;20522;-56
2023/08/09 01:06:27;;;;;;;0.80;0.40;;;17.40;1.00;;;;;;5073822;28;20514;-56
2023/08/09 01:09:02;;;;;;;0.70;0.40;;;17.40;1.00;;;;;;5074602;28;20518;-54
2023/08/09 01:11:37;;;;;;;0.90;0.40;;;17.30;1.00;;;;;;5070536;28;20427;-55
2023/08/09 01:14:07;;;;;;;0.57;0.35;;;17.40;1.00;;;;;;5073139;28;20469;-57
2023/08/09 01:16:37;;;;;;;0.70;0.40;;;17.30;1.00;;;;;;5055215;28;20912;-56
2023/08/09 01:19:11;;;;;;;0.60;0.40;;;17.30;1.00;;;;;;5063288;28;20524;-56
2023/08/09 01:21:41;;;;;;;0.50;0.30;;;17.30;1.00;;;;;;5053444;28;20544;-56
2023/08/09 01:24:12;;;;;;;0.90;0.40;;;17.30;1.00;;;;;;5064120;28;20523;-56
2023/08/09 01:26:40;;;;;;;0.70;0.40;;;17.30;1.00;;;;;;5094100;28;20420;-55
2023/08/09 01:29:07;;;;;;;0.60;0.40;;;17.30;1.00;;;;;;5077633;28;20427;-56
2023/08/09 01:31:34;;;;;;;0.53;0.40;;;17.30;1.00;;;;;;5074342;28;20423;-55
2023/08/09 01:34:02;;;;;;;0.70;0.50;;;17.20;1.00;;;;;;5068370;28;20434;-56
2023/08/09 01:36:34;;;;;;;0.50;0.40;;;17.20;1.00;;;;;;5074432;28;20423;-56
2023/08/09 01:39:12;;;;;;;0.60;0.40;;;17.10;1.00;;;;;;5083975;28;20435;-55
2023/08/09 01:41:42;;;;;;;0.93;0.40;;;17.10;1.00;;;;;;5095211;28;20505;-54
2023/08/09 01:44:11;;;;;;;1.40;0.43;;;17.10;1.00;;;;;;5082744;28;20427;-56
2023/08/09 01:46:39;;;;;;;0.98;0.40;;;17.00;1.00;;;;;;5073521;28;20427;-54
2023/08/09 01:49:11;;;;;;;1.40;0.47;;;17.00;1.00;;;;;;5083113;28;20528;-56
2023/08/09 01:51:38;;;;;;;0.70;0.40;;;16.90;1.00;;;;;;5095499;28;20516;-55
2023/08/09 01:54:06;;;;;;;0.60;0.40;;;16.90;1.00;;;;;;5081280;28;20439;-54
2023/08/09 01:56:33;;;;;;;0.65;0.40;;;16.90;1.00;;;;;;5073846;28;20418;-55
2023/08/09 01:59:04;;;;;;;0.80;0.40;;;16.80;1.00;;;;;;5077592;28;20522;-55
2023/08/09 02:01:31;;;;;;;0.90;0.40;;;16.70;1.00;;;;;;5073088;28;20427;-56
2023/08/09 02:03:57;;;;;;;1.10;0.50;;;16.70;1.00;;;;;;5087719;28;20422;-55
2023/08/09 02:06:24;;;;;;;0.70;0.40;;;16.70;1.00;;;;;;5094160;28;20520;-53
2023/08/09 02:08:51;;;;;;;0.80;0.40;;;16.70;1.00;;;;;;5073809;28;20518;-51
2023/08/09 02:11:18;;;;;;;0.88;0.40;;;16.70;1.00;;;;;;5074300;28;20469;-56
2023/08/09 02:13:45;;;;;;;0.77;0.50;;;16.70;1.00;;;;;;5075307;28;20460;-55
2023/08/09 02:16:13;;;;;;;2.03;0.43;;;16.70;1.00;;;;;;5074702;28;20803;-56
2023/08/09 02:18:40;;;;;;;0.67;0.40;;;16.70;1.00;;;;;;5087003;28;20517;-53
2023/08/09 02:21:07;;;;;;;0.80;0.45;;;16.70;1.00;;;;;;5090733;28;20524;-56
2023/08/09 02:23:34;;;;;;;0.60;0.40;;;16.70;1.00;;;;;;5072674;28;20434;-57
2023/08/09 02:26:01;;;;;;;0.90;0.50;;;16.70;1.00;;;;;;5076630;28;20430;-57
2023/08/09 02:28:27;;;;;;;0.70;0.50;;;16.70;1.00;;;;;;5074201;28;20594;-56
2023/08/09 02:30:54;;;;;;;0.80;0.50;;;16.80;1.00;;;;;;5074376;28;20474;-56
2023/08/09 02:33:23;;;;;;;1.30;0.40;;;16.80;1.00;;;;;;5073631;28;20726;-54
2023/08/09 02:35:55;;;;;;;0.73;0.40;;;16.90;1.00;;;;;;5067249;28;20433;-55
2023/08/09 02:38:23;;;;;;;0.70;0.40;;;16.90;1.00;;;;;;5053838;28;20459;-54
2023/08/09 02:40:50;;;;;;;0.60;0.40;;;17.00;1.00;;;;;;5067278;28;20453;-56
2023/08/09 02:43:17;;;;;;;0.60;0.30;;;16.90;1.00;;;;;;5078086;28;20442;-56
2023/08/09 02:45:44;;;;;;;1.30;0.40;;;16.90;1.00;;;;;;5080754;28;20439;-54
2023/08/09 02:48:12;;;;;;;0.80;0.50;;;16.90;1.00;;;;;;5077733;28;20522;-54
2023/08/09 02:50:41;;;;;;;0.77;0.40;;;16.90;1.00;;;;;;5085462;28;20737;-56
2023/08/09 02:53:09;;;;;;;0.70;0.40;;;16.90;1.00;;;;;;5096671;28;20420;-55
2023/08/09 02:55:36;;;;;;;0.55;0.40;;;16.90;1.00;;;;;;5092740;28;20433;-56
2023/08/09 02:58:05;;;;;;;1.20;0.40;;;16.90;1.00;;;;;;5096765;28;20515;-57
2023/08/09 03:00:33;;;;;;;0.60;0.30;;;16.80;1.00;;;;;;5069858;28;20920;-57
2023/08/09 03:03:04;;;;;;;0.60;0.40;;;16.80;1.00;;;;;;5056579;28;20463;-56
2023/08/09 03:05:31;;;;;;;1.30;0.40;;;16.80;1.00;;;;;;5074800;28;20435;-56
2023/08/09 03:08:00;;;;;;;0.85;0.40;;;16.80;1.00;;;;;;5075337;28;20487;-56
2023/08/09 03:10:27;;;;;;;1.10;0.40;;;16.90;1.00;;;;;;5073257;28;20522;-56
2023/08/09 03:12:54;;;;;;;1.00;0.50;;;16.90;1.00;;;;;;5076089;28;20419;-51
2023/08/09 03:15:22;;;;;;;0.68;0.40;;;16.90;1.00;;;;;;5073517;28;20515;-56
2023/08/09 03:17:49;;;;;;;0.60;0.40;;;16.80;1.00;;;;;;5077445;28;20425;-56
2023/08/09 03:20:17;;;;;;;1.80;0.40;;;16.80;1.00;;;;;;5058925;28;20528;-50
2023/08/09 03:22:44;;;;;;;0.80;0.40;;;16.80;1.00;;;;;;5063172;28;20852;-53
2023/08/09 03:25:13;;;;;;;1.05;0.40;;;16.70;1.00;;;;;;5057157;28;20520;-55
2023/08/09 03:27:40;;;;;;;0.88;0.40;;;16.70;1.00;;;;;;5061900;28;20435;-54
2023/08/09 03:30:09;;;;;;;0.60;0.40;;;16.70;1.00;;;;;;5096264;28;20524;-56
2023/08/09 03:32:36;;;;;;;0.77;0.35;;;16.70;1.00;;;;;;5093667;28;20477;-52
2023/08/09 03:35:04;;;;;;;0.70;0.40;;;16.70;1.00;;;;;;5075448;28;20525;-54
2023/08/09 03:37:31;;;;;;;0.70;0.40;;;16.80;1.00;;;;;;5079529;28;20914;-56
2023/08/09 03:39:58;;;;;;;0.70;0.40;;;16.80;1.00;;;;;;5077537;28;20522;-55
2023/08/09 03:42:27;;;;;;;0.70;0.40;;;16.80;1.00;;;;;;5079924;28;20526;-54
2023/08/09 03:44:55;;;;;;;0.60;0.40;;;16.80;1.00;;;;;;5095426;28;20533;-53
2023/08/09 03:47:21;;;;;;;0.87;0.40;;;16.80;1.00;;;;;;5087305;28;20756;-52
2023/08/09 03:49:48;;;;;;;0.70;0.40;;;16.90;1.00;;;;;;5074182;28;20502;-55
2023/08/09 03:52:15;;;;;;;0.90;0.40;;;16.80;1.00;;;;;;5072556;28;20432;-54
2023/08/09 03:54:42;;;;;;;0.60;0.40;;;16.80;1.00;;;;;;5075154;28;20478;-56
2023/08/09 03:57:09;;;;;;;0.80;0.40;;;16.90;1.00;;;;;;5073353;28;20470;-55
2023/08/09 03:59:38;;;;;;;0.90;0.40;;;16.90;1.00;;;;;;5076422;28;20426;-55
2023/08/09 04:02:05;;;;;;;1.90;0.40;;;16.90;1.00;;;;;;5069032;28;20808;-54
2023/08/09 04:04:32;;;;;;;0.80;0.40;;;16.90;1.00;;;;;;5055902;28;20417;-55
2023/08/09 04:06:59;;;;;;;0.55;0.30;;;17.00;1.00;;;;;;5066160;28;20712;-53
2023/08/09 04:09:26;;;;;;;0.70;0.40;;;16.90;1.00;;;;;;5076158;28;20510;-56
2023/08/09 04:11:53;;;;;;;0.60;0.40;;;17.00;1.00;;;;;;5086173;28;20861;-56
2023/08/09 04:14:20;;;;;;;0.60;0.40;;;16.90;1.00;;;;;;5095077;28;20414;-56
2023/08/09 04:16:48;;;;;;;0.60;0.40;;;17.00;1.00;;;;;;5090376;28;20422;-56
2023/08/09 04:19:15;;;;;;;0.60;0.30;;;17.00;1.00;;;;;;5095505;28;20457;-56
2023/08/09 04:21:42;;;;;;;0.70;0.40;;;17.00;1.00;;;;;;5089910;28;20436;-56
2023/08/09 04:24:10;;;;;;;0.63;0.30;;;17.00;1.00;;;;;;5094360;28;20440;-55
2023/08/09 04:26:37;;;;;;;0.57;0.40;;;16.90;1.00;;;;;;5090242;28;20433;-56
2023/08/09 04:29:04;;;;;;;1.10;0.38;;;16.90;1.00;;;;;;5094056;28;20477;-55
2023/08/09 04:31:31;;;;;;;0.80;0.50;;;16.90;1.00;;;;;;5076929;28;20435;-54
2023/08/09 04:33:59;;;;;;;0.60;0.40;;;16.90;1.00;;;;;;5079510;28;20426;-57
2023/08/09 04:36:26;;;;;;;0.70;0.40;;;16.90;1.00;;;;;;5076331;28;20431;-55
2023/08/09 04:38:53;;;;;;;0.60;0.30;;;16.90;1.00;;;;;;5079074;28;20436;-56
2023/08/09 04:41:20;;;;;;;0.50;0.40;;;17.00;1.00;;;;;;5074475;28;20507;-55
2023/08/09 04:43:47;;;;;;;0.77;0.30;;;17.00;1.00;;;;;;5076543;28;20945;-54
2023/08/09 04:46:16;;;;;;;1.20;0.40;;;17.00;1.00;;;;;;5065148;28;20508;-54
2023/08/09 04:48:43;;;;;;;0.77;0.40;;;17.10;1.00;;;;;;5058077;28;20739;-54
2023/08/09 04:51:12;;;;;;;0.55;0.40;;;17.10;1.00;;;;;;5074971;28;20518;-52
2023/08/09 04:53:39;;;;;;;2.67;0.40;;;17.20;99.90;;;;;;5074880;28;20427;-55
2023/08/09 04:56:06;;;;;;;0.50;0.40;;;17.30;99.90;;;;;;5074880;28;20419;-56
2023/08/09 04:58:33;;;;;;;1.00;0.40;;;17.30;99.90;;;;;;5074404;28;20470;-50
2023/08/09 05:01:00;;;;;;;0.60;0.30;;;17.40;99.90;;;;;;5074843;28;20589;-55
2023/08/09 05:03:27;;;;;;;0.70;0.40;;;17.40;99.90;;;;;;5054233;28;20492;-55
2023/08/09 05:05:54;;;;;;;0.70;0.40;;;17.50;99.90;;;;;;5054129;28;20920;-57
2023/08/09 05:08:22;;;;;;;0.60;0.30;;;17.40;99.90;;;;;;5054709;28;20417;-55
2023/08/09 05:10:49;;;;;;;1.70;0.38;;;17.40;99.90;;;;;;5053829;28;20514;-55
2023/08/09 05:13:16;;;;;;;0.60;0.40;;;17.40;19.80;;;;;;5053837;28;20528;-54
2023/08/09 05:15:43;;;;;;;0.50;0.40;;;17.50;22.30;;;;;;5054430;28;20429;-54
2023/08/09 05:18:09;;;;;;;0.60;0.40;;;17.50;1.00;;;;;;5058654;28;20463;-53
2023/08/09 05:20:37;;;;;;;1.20;0.40;;;17.50;1.00;;;;;;5093634;28;20521;-54
2023/08/09 05:23:04;;;;;;;0.63;0.40;;;17.50;1.00;;;;;;5091531;28;20460;-50
2023/08/09 05:25:32;;;;;;;0.60;0.40;;;17.60;1.00;;;;;;5092424;28;20864;-55
2023/08/09 05:27:59;;;;;;;0.70;0.50;;;17.60;1.00;;;;;;5091827;28;20974;-54
2023/08/09 05:30:26;;;;;;;0.70;0.40;;;17.70;34.00;;;;;;5073855;28;20502;-53
2023/08/09 05:32:53;;;;;;;0.60;0.30;;;17.70;1.00;;;;;;5075305;28;20518;-53
2023/08/09 05:35:20;;;;;;;0.60;0.40;;;17.70;1.00;;;;;;5093128;28;20422;-55
2023/08/09 05:37:46;;;;;;;0.60;0.33;;;17.70;1.00;;;;;;5088925;28;20470;-54
2023/08/09 05:40:14;;;;;;;0.50;0.40;;;17.70;1.00;;;;;;5094829;28;20418;-56
2023/08/09 05:42:42;;;;;;;0.85;0.40;;;17.80;1.00;;;;;;5089254;28;20935;-56
2023/08/09 05:45:10;;;;;;;1.73;0.40;;;17.80;1.00;;;;;;5093147;28;20430;-55
2023/08/09 05:47:37;;;;;;;0.60;0.30;;;17.90;1.00;;;;;;5088106;28;20545;-51
2023/08/09 05:50:05;;;;;;;0.80;0.40;;;17.90;1.00;;;;;;5094436;28;20493;-54
2023/08/09 05:52:32;;;;;;;0.70;0.40;;;17.90;1.00;;;;;;5089346;28;20529;-54
2023/08/09 05:54:59;;;;;;;0.90;0.40;;;17.90;1.00;;;;;;5093152;28;20956;-52
2023/08/09 05:57:27;;;;;;;0.63;0.40;;;18.00;99.90;;;;;;5084318;28;21101;-56
2023/08/09 05:59:55;;;;;;;0.80;0.40;;;18.00;99.90;;;;;;5073052;28;20949;-53
2023/08/09 06:02:22;;;;;;;0.90;0.50;;;18.00;19.50;;;;;;5074466;28;20518;-54
2023/08/09 06:04:49;;;;;;;0.65;0.40;;;18.10;1.00;;;;;;5070159;28;20435;-53
2023/08/09 06:07:17;;;;;;;0.60;0.40;;;18.10;1.00;;;;;;5066330;28;20439;-56
2023/08/09 06:09:44;;;;;;;0.80;0.45;;;18.20;1.00;;;;;;5049592;28;20528;-56
2023/08/09 06:12:10;;;;;;;0.60;0.32;;;18.20;1.00;;;;;;5052906;28;20862;-56
2023/08/09 06:14:37;;;;;;;1.30;0.40;;;18.30;99.90;;;;;;5067485;28;20486;-55
2023/08/09 06:17:06;;;;;;;0.70;0.30;;;18.30;1.00;;;;;;5077429;28;20462;-54
2023/08/09 06:19:33;;;;;;;0.70;0.40;;;18.40;1.00;;;;;;5079377;28;20545;-56
2023/08/09 06:22:00;;;;;;;0.90;0.40;;;18.40;99.90;;;;;;5077438;28;20446;-54
2023/08/09 06:24:27;;;;;;;0.60;0.35;;;18.50;99.90;;;;;;5080866;28;20442;-56
2023/08/09 06:26:54;;;;;;;0.70;0.40;;;18.50;99.90;;;;;;5088768;28;20439;-55
2023/08/09 06:29:21;;;;;;;0.70;0.35;;;18.60;34.60;;;;;;5074212;28;20835;-54
2023/08/09 06:31:48;;;;;;;0.60;0.40;;;18.60;71.90;;;;;;5073332;28;20882;-55
2023/08/09 06:34:17;;;;;;;0.90;0.40;;;18.70;1.00;;;;;;5069801;28;20433;-53
2023/08/09 06:36:44;;;;;;;0.68;0.30;;;18.80;1.00;;;;;;5065304;28;20461;-56
2023/08/09 06:39:10;;;;;;;0.50;0.30;;;19.00;1.00;;;;;;5077390;28;20506;-57
2023/08/09 06:41:37;;;;;;;0.70;0.30;;;19.20;99.90;;;;;;5073079;28;20447;-55
2023/08/09 06:44:05;;;;;;;0.60;0.40;;;19.30;1.00;;;;;;5068796;28;20428;-55
2023/08/09 06:46:32;;;;;;;0.70;0.50;;;19.40;1.00;;;;;;5078203;28;20438;-55
2023/08/09 06:48:59;;;;;;;1.00;0.40;;;19.50;99.90;;;;;;5073151;28;20435;-55
2023/08/09 06:51:27;;;;;;;0.60;0.30;;;19.60;99.90;;;;;;5074801;28;20598;-54
2023/08/09 06:53:54;;;;;;;1.23;0.40;;;19.70;99.90;;;;;;5073932;28;20438;-55
2023/08/09 06:56:21;;;;;;;1.10;0.40;;;19.80;33.40;;;;;;5077625;28;20502;-55
2023/08/09 06:58:48;;;;;;;0.60;0.30;;;19.70;1.00;;;;;;5069497;28;20816;-55
2023/08/09 07:01:15;;;;;;;0.60;0.30;;;19.80;1.00;;;;;;5070435;28;20750;-54
2023/08/09 07:03:42;;;;;;;1.00;0.40;;;19.70;1.00;;;;;;5074356;28;20436;-55
2023/08/09 07:06:08;;;;;;;0.85;0.50;;;19.70;1.00;;;;;;5080371;28;21402;-55
2023/08/09 07:08:37;;;;;;;0.70;0.40;;;19.80;1.00;;;;;;5096484;28;20733;-57
2023/08/09 07:11:03;;;;;;;0.70;0.40;;;19.90;1.00;;;;;;5074995;28;20762;-54
2023/08/09 07:13:30;;;;;;;0.88;0.40;;;20.00;1.00;;;;;;5078151;28;20532;-54
2023/08/09 07:15:57;;;;;;;0.60;0.40;;;20.00;1.00;;;;;;5071087;28;20524;-55
2023/08/09 07:18:25;;;;;;;0.70;0.40;;;19.90;1.00;;;;;;5074910;28;20723;-56
2023/08/09 07:20:52;;;;;;;0.60;0.30;;;19.90;1.00;;;;;;5076522;28;20461;-54
2023/08/09 07:23:19;;;;;;;1.00;0.50;;;19.90;1.00;;;;;;5078550;28;20498;-52
2023/08/09 07:25:47;;;;;;;0.50;0.32;;;20.00;1.00;;;;;;5079823;28;20741;-54
2023/08/09 07:28:14;;;;;;;0.50;0.30;;;20.00;1.00;;;;;;5065878;28;20881;-56
2023/08/09 07:30:41;;;;;;;1.90;0.40;;;20.00;1.00;;;;;;5067906;28;20887;-54
2023/08/09 07:33:08;;;;;;;0.90;0.40;;;20.20;1.00;;;;;;5096136;28;20422;-56
2023/08/09 07:35:35;;;;;;;2.00;0.40;;;20.30;1.00;;;;;;5089399;28;20511;-56
2023/08/09 07:38:02;;;;;;;1.20;0.40;;;20.40;1.00;;;;;;5070796;28;20901;-55
2023/08/09 07:40:30;;;;;;;0.43;0.20;;;20.50;1.00;;;;;;5075870;28;20426;-56
2023/08/09 07:43:00;;;;;;;0.60;0.40;;;20.50;1.00;;;;;;5069927;28;20488;-57
2023/08/09 07:45:27;;;;;;;0.70;0.40;;;20.50;1.00;;;;;;5077227;28;20443;-56
2023/08/09 07:47:54;;;;;;;0.80;0.40;;;20.50;1.00;;;;;;5072276;28;20507;-58
2023/08/09 07:50:21;;;;;;;0.65;0.30;;;20.60;1.00;;;;;;5077072;28;20475;-57
2023/08/09 07:52:48;;;;;;;0.50;0.30;;;20.60;1.00;;;;;;5092499;28;20721;-57
2023/08/09 07:55:15;;;;;;;0.70;0.40;;;20.60;1.00;;;;;;5089835;28;20529;-57
2023/08/09 07:57:42;;;;;;;0.70;0.30;;;20.60;1.00;;;;;;5071716;28;20518;-57
2023/08/09 08:00:12;;;;;;;0.70;0.40;;;20.60;1.00;;;;;;5079962;28;20436;-57
2023/08/09 08:02:39;;;;;;;0.50;0.30;;;20.70;1.00;;;;;;5093487;28;20425;-57
2023/08/09 08:05:08;;;;;;;0.85;0.40;;;20.60;1.00;;;;;;5075567;28;20420;-57
2023/08/09 08:07:35;;;;;;;0.60;0.30;;;20.70;1.00;;;;;;5070330;28;20439;-55
2023/08/09 08:10:01;;;;;;;0.70;0.43;;;20.80;1.00;;;;;;5064553;28;20439;-57
2023/08/09 08:12:29;;;;;;;1.00;0.40;;;20.70;1.00;;;;;;5061819;28;20553;-58
2023/08/09 08:14:55;;;;;;;0.90;0.40;;;20.70;1.00;;;;;;5076657;28;20456;-58
2023/08/09 08:17:24;;;;;;;0.70;0.30;;;20.80;1.00;;;;;;5073521;28;20431;-58
2023/08/09 08:19:50;;;;;;;0.70;0.30;;;21.10;1.00;;;;;;5071138;28;20577;-57
2023/08/09 08:22:18;;;;;;;0.70;0.30;;;21.20;99.90;;;;;;5068294;28;20841;-57
2023/08/09 08:24:45;;;;;;;0.60;0.30;;;21.20;99.90;;;;;;5082803;28;20434;-57
2023/08/09 08:27:12;;;;;;;0.73;0.30;;;21.20;99.90;;;;;;5091876;28;21000;-58
2023/08/09 08:29:39;;;;;;;1.30;0.37;;;21.20;99.90;;;;;;5085977;28;20437;-57
2023/08/09 08:32:06;;;;;;;0.60;0.30;;;21.40;99.90;;;;;;5071848;28;20514;-55
2023/08/09 08:34:35;;;;;;;0.70;0.30;;;21.00;99.90;;;;;;5069560;28;20735;-56
2023/08/09 08:37:02;;;;;;;0.63;0.33;;;20.70;1.00;;;;;;5083995;22;20446;-73
2023/08/09 08:39:29;;;;;;;0.70;0.40;;;20.80;1.00;;;;;;5063029;28;20435;-73
2023/08/09 08:41:57;;;;;;;0.90;0.30;;;20.90;1.00;;;;;;5070461;28;20431;-74
2023/08/09 08:44:25;;;;;;;1.10;0.30;;;20.90;1.00;;;;;;5059359;28;20526;-73
2023/08/09 08:46:52;;;;;;;0.60;0.30;;;21.00;1.00;;;;;;5069021;28;20875;-72
2023/08/09 08:49:21;;;;;;;0.55;0.30;;;21.00;99.90;;;;;;5072761;28;20522;-72
2023/08/09 08:51:55;;;;;;;0.50;0.30;;;21.10;99.90;;;;;;5069667;28;20629;-73
2023/08/09 08:54:23;;;;;;;0.60;0.40;;;21.20;99.90;;;;;;5068381;28;20558;-73
2023/08/09 08:56:50;;;;;;;0.70;0.40;;;21.30;99.90;;;;;;5070487;28;20820;-74
2023/08/09 08:59:17;;;;;;;0.70;0.40;;;21.30;99.90;;;;;;5068951;28;20899;-73
2023/08/09 09:01:44;;;;;;;1.10;0.40;;;21.20;99.90;;;;;;5071587;28;20446;-72
2023/08/09 09:04:12;;;;;;;0.70;0.40;;;21.20;99.90;;;;;;5070701;28;20586;-72
2023/08/09 09:06:40;;;;;;;1.40;0.30;;;21.20;99.90;;;;;;5068673;28;20526;-72
2023/08/09 09:09:14;;;;;;;1.05;0.40;;;21.20;99.90;;;;;;5069530;28;20927;-72
2023/08/09 09:11:45;;;;;;;0.60;0.40;;;21.30;99.90;;;;;;5066547;28;20439;-72
2023/08/09 09:14:14;;;;;;;0.73;0.30;;;21.30;99.90;;;;;;5072898;28;20855;-73
2023/08/09 09:16:41;;;;;;;1.00;0.50;;;21.60;99.90;;;;;;5068306;28;20930;-73
2023/08/09 09:19:09;;;;;;;0.63;0.40;;;21.70;99.90;;;;;;5078008;28;20933;-72
2023/08/09 09:21:37;;;;;;;0.60;0.40;;;21.70;99.90;;;;;;5067361;28;20429;-72
2023/08/09 09:24:07;;;;;;;0.60;0.40;;;21.80;99.90;;;;;;5072092;28;20527;-72
2023/08/09 09:26:37;;;;;;;1.00;0.30;;;21.80;99.90;;;;;;5064693;28;20436;-73
2023/08/09 09:29:07;;;;;;;0.50;0.40;;;21.70;99.90;;;;;;5063499;28;20874;-72
2023/08/09 09:31:36;;;;;;;0.60;0.38;;;21.90;99.90;;;;;;5068786;28;20508;-73
2023/08/09 09:34:06;;;;;;;0.60;0.40;;;21.70;99.90;;;;;;5071778;28;20930;-72
2023/08/09 09:36:33;;;;;;;0.90;0.50;;;21.50;99.90;;;;;;5070785;28;20427;-72
2023/08/09 09:39:01;;;;;;;0.60;0.40;;;21.60;99.90;;;;;;5069521;28;20522;-71
2023/08/09 09:41:28;;;;;;;0.90;0.40;;;21.80;99.90;;;;;;5070650;28;20735;-73
2023/08/09 09:43:58;;;;;;;0.70;0.40;;;21.70;99.90;;;;;;5053744;28;20475;-73
2023/08/09 09:46:28;;;;;;;0.50;0.40;;;21.80;99.90;;;;;;5061186;28;20439;-74
2023/08/09 09:49:04;;;;;;;1.90;0.40;;;21.70;99.90;;;;;;5064009;28;20448;-73
2023/08/09 09:51:31;;;;;;;0.50;0.40;;;21.80;99.90;;;;;;5061554;28;20432;-73
2023/08/09 09:53:58;;;;;;;0.90;0.40;;;21.90;99.90;;;;;;5067841;28;20914;-73
2023/08/09 09:56:25;;;;;;;0.70;0.30;;;21.90;99.90;;;;;;5061612;28;20427;-72
2023/08/09 09:58:52;;;;;;;1.10;0.40;;;21.90;99.90;;;;;;5051909;28;20712;-73
2023/08/09 10:01:23;;;;;;;0.60;0.35;;;22.00;99.90;;;;;;5067061;28;20926;-72
2023/08/09 10:03:50;;;;;;;0.90;0.40;;;22.20;99.90;;;;;;5070857;28;20431;-73
2023/08/09 10:06:22;;;;;;;0.63;0.40;;;22.20;99.90;;;;;;5068414;28;20823;-74
2023/08/09 10:08:52;;;;;;;0.93;0.40;;;22.10;99.90;;;;;;5058377;28;20448;-73
2023/08/09 10:11:20;;;;;;;1.77;0.40;;;21.70;99.90;;;;;;5063254;28;20439;-74
2023/08/09 10:13:48;;;;;;;0.50;0.30;;;21.50;99.90;;;;;;5069174;28;20446;-76
2023/08/09 10:16:17;;;;;;;0.65;0.40;;;21.80;99.90;;;;;;5071522;28;20459;-75
2023/08/09 10:18:49;;;;;;;0.60;0.30;;;21.80;99.90;;;;;;5074985;28;20427;-76
2023/08/09 10:21:18;;;;;;;1.65;0.50;;;22.00;99.90;;;;;;5071410;28;20510;-73
2023/08/09 10:23:55;;;;;;;0.68;0.40;;;22.20;99.90;;;;;;5074532;28;20441;-74
2023/08/09 10:26:28;;;;;;;1.00;0.40;;;22.10;99.90;;;;;;5076817;28;20504;-73
2023/08/09 10:29:02;;;;;;;0.73;0.40;;;21.90;99.90;;;;;;5072079;28;20493;-74
2023/08/09 10:31:53;;;;;;;0.60;0.40;;;21.80;99.90;;;;;;5067632;28;20542;-75
2023/08/09 10:34:23;;;;;;;0.67;0.40;;;21.60;99.90;;;;;;5054177;28;20491;-75
2023/08/09 10:36:53;;;;;;;0.60;0.30;;;21.60;99.90;;;;;;5059940;28;20823;-75
2023/08/09 10:39:21;;;;;;;0.60;0.30;;;21.70;99.90;;;;;;5066198;28;20428;-74
2023/08/09 10:41:55;;;;;;;1.10;0.40;;;21.80;99.90;;;;;;5066315;28;20467;-75
2023/08/09 10:44:37;;;;;;;0.60;0.30;;;21.90;99.90;;;;;;5069794;28;20435;-75
2023/08/09 10:47:06;;;;;;;0.70;0.33;;;22.00;99.90;;;;;;5069181;28;20526;-75
2023/08/09 10:50:10;;;;;;;0.70;0.30;;;22.10;99.90;;;;;;5065512;28;20493;-75
2023/08/09 10:52:40;;;;;;;0.90;0.40;;;22.30;99.90;;;;;;5073682;28;20474;-75
2023/08/09 10:55:25;;;;;;;0.60;0.30;;;22.30;99.90;;;;;;5061871;28;20443;-74
2023/08/09 10:57:53;;;;;;;0.55;0.30;;;22.20;99.90;;;;;;5063984;28;20450;-74
2023/08/09 11:00:22;;;;;;;0.70;0.43;;;22.10;99.90;;;;;;5055918;28;20435;-75
2023/08/09 11:02:50;;;;;;;0.65;0.40;;;22.10;99.90;;;;;;5082758;28;20633;-75
2023/08/09 11:05:18;;;;;;;0.75;0.40;;;22.30;99.90;;;;;;5069448;28;20521;-74
2023/08/09 11:07:47;;;;;;;0.50;0.30;;;22.20;99.90;;;;;;5071419;28;20467;-74
2023/08/09 11:10:15;;;;;;;0.90;0.40;;;22.30;99.90;;;;;;5067493;28;20459;-73
2023/08/09 11:12:44;;;;;;;0.50;0.30;;;22.20;99.90;;;;;;5068323;28;20435;-75
2023/08/09 11:15:12;;;;;;;1.10;0.40;;;22.20;99.90;;;;;;5067505;28;20910;-74
2023/08/09 11:17:48;;;;;;;1.00;0.30;;;22.30;99.90;;;;;;5071616;28;20442;-76
2023/08/09 11:20:16;;;;;;;0.60;0.30;;;22.40;99.90;;;;;;5060646;28;20990;-75
2023/08/09 11:22:53;;;;;;;0.60;0.30;;;22.50;99.90;;;;;;5066048;28;20963;-75
2023/08/09 11:25:20;;;;;;;1.10;0.40;;;22.60;99.90;;;;;;5070467;28;20425;-75
2023/08/09 11:27:47;;;;;;;0.50;0.30;;;22.70;99.90;;;;;;5061462;28;20516;-75
2023/08/09 11:30:15;;;;;;;0.60;0.30;;;23.00;99.90;;;;;;5065369;28;20445;-76
2023/08/09 11:32:43;;;;;;;0.60;0.30;;;22.90;99.90;;;;;;5063327;28;20454;-76
2023/08/09 11:35:11;;;;;;;0.80;0.40;;;23.10;99.90;;;;;;5065095;28;20531;-76
2023/08/09 11:37:42;;;;;;;0.70;0.40;;;23.20;99.90;;;;;;5068326;28;20791;-76
2023/08/09 11:40:12;;;;;;;1.10;0.40;;;22.90;99.90;;;;;;5066723;28;20746;-74
2023/08/09 11:42:39;;;;;;;0.80;0.40;;;22.80;99.90;;;;;;5071206;28;20487;-74
2023/08/09 11:45:07;;;;;;;1.30;0.40;;;22.70;99.90;;;;;;5066899;28;20445;-75
2023/08/09 11:47:36;;;;;;;1.33;0.30;;;23.00;99.90;;;;;;5073123;28;20594;-73
2023/08/09 11:50:11;;;;;;;0.80;0.30;;;23.00;99.90;;;;;;5071035;28;20436;-73
2023/08/09 11:52:38;;;;;;;0.85;0.40;;;23.00;99.90;;;;;;5069856;28;20735;-74
2023/08/09 11:55:08;;;;;;;0.60;0.40;;;23.20;99.90;;;;;;5071541;28;20425;-73
2023/08/09 11:57:37;;;;;;;0.50;0.30;;;23.00;99.90;;;;;;5044073;28;20474;-74
2023/08/09 12:00:10;;;;;;;0.80;0.30;;;23.00;99.90;;;;;;5067258;28;20927;-73
2023/08/09 12:02:37;;;;;;;0.60;0.30;;;22.90;99.90;;;;;;5072346;28;20487;-73
2023/08/09 12:05:10;;;;;;;0.90;0.40;;;23.20;99.90;;;;;;5071451;28;20531;-75
2023/08/09 12:07:37;;;;;;;0.70;0.40;;;23.40;99.90;;;;;;5059617;28;20505;-73
2023/08/09 12:10:05;;;;;;;0.70;0.40;;;23.60;99.90;;;;;;5067571;28;20463;-74
2023/08/09 12:12:42;;;;;;;0.50;0.30;;;24.00;74.90;;;;;;5069041;28;20456;-74
2023/08/09 12:15:11;;;;;;;1.20;0.40;;;24.10;28.20;;;;;;5066756;28;20809;-74
2023/08/09 12:17:38;;;;;;;0.60;0.40;;;24.00;18.90;;;;;;5064404;28;20446;-74
2023/08/09 12:20:09;;;;;;;1.60;0.40;;;23.60;25.80;;;;;;5071630;28;20489;-74
2023/08/09 12:22:38;;;;;;;0.80;0.40;;;23.40;43.00;;;;;;5070210;28;20455;-74
2023/08/09 12:25:06;;;;;;;0.55;0.35;;;23.50;47.20;;;;;;5063193;28;20424;-74
2023/08/09 12:27:33;;;;;;;0.80;0.40;;;23.60;42.00;;;;;;5063503;28;20448;-74
2023/08/09 12:30:01;;;;;;;1.00;0.40;;;23.20;51.40;;;;;;5088140;28;20920;-74
2023/08/09 12:32:29;;;;;;;0.60;0.40;;;23.00;48.70;;;;;;5087948;28;20539;-73
2023/08/09 12:34:57;;;;;;;0.60;0.30;;;23.00;65.00;;;;;;5059618;28;20435;-72
2023/08/09 12:37:25;;;;;;;0.70;0.40;;;23.10;80.10;;;;;;5056922;28;20774;-73
2023/08/09 12:39:51;;;;;;;1.00;0.40;;;22.90;98.30;;;;;;5051437;28;20456;-73
2023/08/09 12:42:18;;;;;;;0.90;0.30;;;23.00;95.50;;;;;;5038792;28;20510;-72
2023/08/09 12:44:45;;;;;;;0.80;0.40;;;22.90;99.30;;;;;;5049809;28;20539;-73
2023/08/09 12:47:14;;;;;;;0.50;0.30;;;23.00;97.40;;;;;;5049365;28;20515;-73
2023/08/09 12:49:40;;;;;;;1.17;0.40;;;23.10;69.30;;;;;;5052380;28;20947;-74
2023/08/09 12:52:07;;;;;;;0.80;0.40;;;23.10;42.00;;;;;;5045965;28;20510;-75
2023/08/09 12:54:34;;;;;;;0.80;0.40;;;23.10;35.60;;;;;;5035519;28;20905;-73
2023/08/09 12:57:01;;;;;;;0.90;0.50;;;23.10;42.40;;;;;;5036593;28;20452;-73